Time;durP1;ratioP1;P1;durP2;ratioP2;P2;SDS_P1;SDS_P2;PMS_P1;PMS_P2;Temp;Humidity;BMP_temperature;BMP_pressure;BME280_temperature;BME280_humidity;BME280_pressure;Samples;Min_cycle;Max_cycle;Signal;HPM_P1;HPM_P2
2022/07/20 00:00:21;;;;;;;3.17;1.33;;;;;;;27.94;27.06;100017.03;5074554;28;20467;-77
2022/07/20 00:02:46;;;;;;;5.22;1.70;;;;;;;27.84;27.48;100025.34;5074302;28;20117;-77
2022/07/20 00:05:12;;;;;;;5.15;2.10;;;;;;;27.81;27.69;100023.47;5074529;28;20024;-78
2022/07/20 00:07:37;;;;;;;4.28;1.77;;;;;;;27.81;27.42;100028.28;5074075;28;20215;-76
2022/07/20 00:12:47;;;;;;;3.83;1.60;;;;;;;27.70;27.82;100016.69;5074250;28;20532;-76
2022/07/20 00:15:12;;;;;;;4.47;2.22;;;;;;;27.70;27.73;100008.28;5074126;28;20028;-76
2022/07/20 00:17:38;;;;;;;6.65;1.50;;;;;;;27.68;27.77;100017.16;5074360;28;20028;-77
2022/07/20 00:20:04;;;;;;;3.47;1.52;;;;;;;27.67;28.07;100015.59;5074006;28;20064;-77
2022/07/20 00:22:29;;;;;;;4.50;1.50;;;;;;;27.51;28.22;100012.94;5074266;28;20032;-75
2022/07/20 00:24:54;;;;;;;3.20;1.60;;;;;;;27.39;28.36;100010.97;5074387;28;20043;-76
2022/07/20 00:27:20;;;;;;;3.25;1.50;;;;;;;27.37;28.39;100014.19;5074464;28;20047;-76
2022/07/20 00:29:45;;;;;;;3.42;1.38;;;;;;;27.33;28.56;100015.56;5074098;28;20028;-77
2022/07/20 00:32:10;;;;;;;4.05;1.75;;;;;;;27.40;28.64;100009.75;5073696;28;20032;-77
2022/07/20 00:34:36;;;;;;;3.97;1.75;;;;;;;27.33;28.59;100001.59;5074282;28;20351;-78
2022/07/20 00:37:01;;;;;;;4.07;2.03;;;;;;;27.24;28.92;100005.09;5073808;28;20508;-78
2022/07/20 00:39:26;;;;;;;3.42;1.42;;;;;;;27.19;29.01;100009.22;5073623;28;20029;-77
2022/07/20 00:41:51;;;;;;;3.92;1.50;;;;;;;27.18;28.80;100009.69;5073930;28;20055;-77
2022/07/20 00:44:17;;;;;;;4.63;1.70;;;;;;;27.22;28.78;100002.75;5073543;28;20338;-77
2022/07/20 00:46:45;;;;;;;3.55;1.58;;;;;;;27.23;28.89;100003.53;5073529;28;20514;-77
2022/07/20 00:49:13;;;;;;;3.08;1.67;;;;;;;27.19;29.01;100000.06;5073350;28;20025;-77
2022/07/20 00:51:41;;;;;;;3.63;1.63;;;;;;;27.19;28.94;100000.06;5073524;28;20111;-77
2022/07/20 00:54:08;;;;;;;3.80;1.40;;;;;;;27.12;28.96;99998.28;5073990;28;20498;-76
2022/07/20 00:56:35;;;;;;;4.15;1.70;;;;;;;27.11;29.13;99991.16;5073386;28;20028;-77
2022/07/20 00:59:06;;;;;;;3.60;1.80;;;;;;;27.10;29.27;99992.38;5073561;28;20024;-77
2022/07/20 01:04:07;;;;;;;4.85;2.00;;;;;;;26.95;29.54;99988.47;5786652;22;20541;-76
2022/07/20 01:06:32;;;;;;;2.53;1.40;;;;;;;26.89;29.66;99985.47;5073022;28;20028;-77
2022/07/20 01:08:58;;;;;;;4.07;1.80;;;;;;;26.83;29.72;99984.44;5073075;28;20037;-77
2022/07/20 01:11:23;;;;;;;3.65;1.60;;;;;;;26.81;29.81;99983.34;5073490;28;20037;-77
2022/07/20 01:13:48;;;;;;;3.08;1.58;;;;;;;26.81;29.79;99978.53;5073341;28;20029;-77
2022/07/20 01:16:14;;;;;;;3.75;1.75;;;;;;;26.77;30.02;99972.28;5073120;28;20035;-76
2022/07/20 01:18:39;;;;;;;3.78;1.58;;;;;;;26.71;30.12;99968.50;5072417;28;20192;-78
2022/07/20 01:21:06;;;;;;;5.22;1.40;;;;;;;26.69;30.03;99963.34;5073061;28;20059;-77
2022/07/20 01:23:32;;;;;;;3.97;1.50;;;;;;;26.70;30.13;99961.34;5055076;28;20028;-78
2022/07/20 01:25:58;;;;;;;2.63;1.33;;;;;;;26.62;30.26;99963.59;5072896;28;20025;-78
2022/07/20 01:28:24;;;;;;;4.50;1.60;;;;;;;26.58;30.24;99968.50;5072745;28;20427;-77
2022/07/20 01:30:50;;;;;;;3.35;1.70;;;;;;;26.57;30.29;99971.75;5072779;28;20447;-77
2022/07/20 01:33:16;;;;;;;4.07;1.70;;;;;;;26.63;30.14;99970.72;5072881;28;20141;-78
2022/07/20 01:35:41;;;;;;;3.53;1.50;;;;;;;26.66;30.15;99963.47;5072590;28;20371;-77
2022/07/20 01:38:06;;;;;;;4.50;1.75;;;;;;;26.62;30.25;99965.59;5073115;28;20494;-77
2022/07/20 01:40:32;;;;;;;3.35;1.40;;;;;;;26.58;30.14;99960.13;5072783;28;20120;-76
2022/07/20 01:42:57;;;;;;;4.93;1.77;;;;;;;26.51;30.51;99959.56;5072635;28;20036;-76
2022/07/20 01:45:23;;;;;;;3.40;1.58;;;;;;;26.46;30.49;99957.34;5072639;28;20029;-77
2022/07/20 01:47:48;;;;;;;3.30;1.42;;;;;;;26.40;30.68;99959.91;5072383;28;20111;-76
2022/07/20 01:50:13;;;;;;;4.65;1.90;;;;;;;26.43;30.36;99959.03;5072332;28;20071;-76
2022/07/20 01:52:39;;;;;;;3.42;1.55;;;;;;;26.43;30.54;99969.41;5072829;28;20060;-75
2022/07/20 01:55:04;;;;;;;3.60;1.50;;;;;;;26.43;30.54;99961.81;5073245;28;20110;-75
2022/07/20 01:57:30;;;;;;;4.75;1.50;;;;;;;26.40;30.57;99957.13;5072472;28;20075;-75
2022/07/20 01:59:56;;;;;;;8.88;1.67;;;;;;;26.44;30.40;99955.00;5072297;28;20035;-75
2022/07/20 02:02:21;;;;;;;3.75;1.60;;;;;;;26.47;30.43;99959.69;5054425;28;20123;-75
2022/07/20 02:04:46;;;;;;;4.60;1.75;;;;;;;26.46;30.46;99955.34;5072365;28;20048;-76
2022/07/20 02:07:11;;;;;;;3.30;1.33;;;;;;;26.55;30.39;99943.50;5072227;28;20189;-76
2022/07/20 02:09:37;;;;;;;5.72;1.73;;;;;;;26.54;30.45;99948.31;5072063;28;20424;-75
2022/07/20 02:12:02;;;;;;;4.88;2.38;;;;;;;26.59;30.09;99950.53;5054369;28;20478;-76
2022/07/20 02:14:28;;;;;;;3.40;1.50;;;;;;;26.68;30.07;99944.25;5072089;28;20126;-76
2022/07/20 02:16:55;;;;;;;4.00;1.63;;;;;;;26.69;29.99;99954.19;5072451;28;20039;-75
2022/07/20 02:19:20;;;;;;;3.08;1.40;;;;;;;26.91;29.56;99945.91;5072287;28;20119;-76
2022/07/20 02:21:46;;;;;;;3.45;1.50;;;;;;;27.02;29.36;99943.53;5072291;28;20419;-76
2022/07/20 02:24:12;;;;;;;3.75;1.50;;;;;;;26.98;29.35;99943.63;5072416;28;20360;-76
2022/07/20 02:26:37;;;;;;;3.47;1.85;;;;;;;26.97;29.44;99941.31;5072239;28;20039;-76
2022/07/20 02:29:03;;;;;;;3.50;1.50;;;;;;;27.02;29.31;99940.75;5072302;28;20033;-76
2022/07/20 02:31:28;;;;;;;6.15;1.60;;;;;;;27.03;29.16;99944.31;5074769;28;20033;-76
2022/07/20 02:33:54;;;;;;;3.15;1.48;;;;;;;27.08;29.04;99950.13;5076253;28;20032;-76
2022/07/20 02:36:19;;;;;;;3.28;1.50;;;;;;;27.07;29.22;99953.38;5076109;28;20086;-76
2022/07/20 02:38:45;;;;;;;3.53;1.73;;;;;;;27.05;29.21;99939.88;5076124;28;20062;-76
2022/07/20 02:41:11;;;;;;;3.88;1.73;;;;;;;27.12;29.11;99948.00;5076056;28;20078;-77
2022/07/20 02:43:36;;;;;;;3.70;1.55;;;;;;;27.21;28.89;99950.88;5076008;28;20114;-76
2022/07/20 02:46:03;;;;;;;3.35;1.50;;;;;;;27.21;28.83;99948.09;5075594;28;20044;-77
2022/07/20 02:48:28;;;;;;;3.30;1.48;;;;;;;27.32;28.67;99944.13;5075617;28;20442;-76
2022/07/20 02:50:54;;;;;;;5.20;1.30;;;;;;;27.21;28.95;99942.50;5075901;28;20052;-76
2022/07/20 02:53:19;;;;;;;3.28;1.58;;;;;;;27.18;28.99;99951.75;5075780;28;20028;-76
2022/07/20 02:55:45;;;;;;;3.40;1.70;;;;;;;27.10;29.25;99942.09;5075547;28;20029;-76
2022/07/20 02:58:11;;;;;;;3.50;1.60;;;;;;;27.16;29.08;99954.25;5075715;28;20115;-75
2022/07/20 03:00:38;;;;;;;4.10;1.75;;;;;;;27.20;29.23;99949.28;5075681;28;20094;-76
2022/07/20 03:03:05;;;;;;;5.75;1.67;;;;;;;27.28;28.96;99947.84;5075607;28;20052;-76
2022/07/20 03:05:31;;;;;;;3.70;1.63;;;;;;;27.30;29.02;99952.97;5075626;28;20112;-76
2022/07/20 03:07:56;;;;;;;4.00;1.70;;;;;;;27.26;29.23;99941.91;5075227;28;20454;-76
2022/07/20 03:10:21;;;;;;;4.53;1.90;;;;;;;27.22;29.29;99946.84;5075225;28;20056;-77
2022/07/20 03:12:47;;;;;;;8.75;1.55;;;;;;;27.26;29.07;99941.91;5057489;28;20569;-76
2022/07/20 03:15:12;;;;;;;3.80;1.75;;;;;;;27.42;28.78;99929.00;5075293;28;20024;-76
2022/07/20 03:17:49;;;;;;;5.80;1.80;;;;;;;27.52;28.67;99927.81;5075387;28;20113;-76
2022/07/20 03:20:22;;;;;;;3.60;1.80;;;;;;;27.48;28.94;99938.34;5075192;28;20475;-76
2022/07/20 03:22:48;;;;;;;3.55;1.73;;;;;;;27.44;28.85;99932.13;5074986;28;20444;-76
2022/07/20 03:25:14;;;;;;;3.00;1.60;;;;;;;27.39;28.90;99927.13;5075305;28;20032;-76
2022/07/20 03:27:39;;;;;;;3.80;1.45;;;;;;;27.48;28.66;99925.16;5075278;28;20116;-76
2022/07/20 03:30:05;;;;;;;3.45;1.40;;;;;;;27.50;28.65;99927.50;5057125;28;20131;-76
2022/07/20 03:32:31;;;;;;;2.92;1.30;;;;;;;27.59;28.34;99935.97;5075146;28;20085;-76
2022/07/20 03:34:57;;;;;;;5.05;1.75;;;;;;;27.62;28.46;99935.03;5074901;28;20127;-76
2022/07/20 03:37:22;;;;;;;3.47;1.60;;;;;;;27.64;28.52;99932.59;5075144;28;20054;-75
2022/07/20 03:39:48;;;;;;;4.85;1.42;;;;;;;27.62;28.23;99934.25;5056600;28;20029;-74
2022/07/20 03:42:13;;;;;;;4.55;1.48;;;;;;;27.74;28.38;99936.25;5074167;28;20032;-74
2022/07/20 03:44:39;;;;;;;4.03;1.80;;;;;;;27.71;28.43;99943.50;5074730;28;20123;-74
2022/07/20 03:47:04;;;;;;;3.75;1.67;;;;;;;27.61;28.54;99955.84;5056827;28;20036;-75
2022/07/20 03:49:29;;;;;;;3.00;1.38;;;;;;;27.74;28.43;99969.81;5074424;28;20029;-76
2022/07/20 03:51:55;;;;;;;4.38;1.95;;;;;;;27.53;28.75;99983.28;5074820;28;20082;-78
2022/07/20 03:54:20;;;;;;;4.00;1.63;;;;;;;27.35;28.97;99988.72;5074728;28;20085;-75
2022/07/20 03:56:45;;;;;;;2.92;1.40;;;;;;;27.35;28.96;99988.72;5074517;28;20255;-76
2022/07/20 03:59:11;;;;;;;4.25;1.60;;;;;;;27.27;29.17;99982.59;5074774;28;20024;-75
2022/07/20 04:01:37;;;;;;;4.47;1.92;;;;;;;27.27;29.18;99985.41;5074670;28;20468;-76
2022/07/20 04:04:06;;;;;;;3.40;1.55;;;;;;;27.33;29.33;99982.81;5052915;28;20049;-75
2022/07/20 04:06:31;;;;;;;4.65;1.65;;;;;;;27.36;29.14;99989.50;5054496;28;20472;-76
2022/07/20 04:08:57;;;;;;;8.15;1.77;;;;;;;27.44;28.91;99985.22;5054613;28;20124;-75
2022/07/20 04:11:23;;;;;;;3.67;1.52;;;;;;;27.56;28.65;99993.59;5054212;28;20384;-76
2022/07/20 04:13:48;;;;;;;4.70;1.50;;;;;;;27.62;28.61;99996.56;5054019;28;20334;-76
2022/07/20 04:16:14;;;;;;;3.55;1.73;;;;;;;27.66;28.65;99994.44;5054115;28;20028;-76
2022/07/20 04:18:39;;;;;;;4.97;1.85;;;;;;;27.57;28.85;100003.53;5054249;28;20048;-76
2022/07/20 04:21:05;;;;;;;3.50;1.70;;;;;;;27.64;28.63;100010.91;5054546;28;20028;-77
2022/07/20 04:23:31;;;;;;;4.35;2.00;;;;;;;27.54;29.00;100010.00;5053946;28;20021;-77
2022/07/20 04:25:56;;;;;;;7.38;1.80;;;;;;;27.62;28.78;100006.97;5054121;28;20491;-75
2022/07/20 04:28:22;;;;;;;3.90;1.50;;;;;;;27.50;28.93;100028.16;5053808;28;20416;-75
2022/07/20 04:30:48;;;;;;;3.83;1.85;;;;;;;27.56;28.91;100020.75;5053933;28;20033;-76
2022/07/20 04:33:13;;;;;;;3.80;1.63;;;;;;;27.43;29.24;100034.00;5054227;28;20094;-76
2022/07/20 04:35:38;;;;;;;3.50;1.50;;;;;;;27.37;29.60;100038.59;5054136;28;20063;-75
2022/07/20 04:38:04;;;;;;;5.30;1.93;;;;;;;27.31;29.52;100048.78;5054020;28;20112;-76
2022/07/20 04:40:29;;;;;;;4.50;1.60;;;;;;;27.20;29.94;100047.13;5053714;28;20274;-76
2022/07/20 04:42:54;;;;;;;5.70;1.77;;;;;;;27.14;29.87;100050.94;5053607;28;20086;-75
2022/07/20 04:45:20;;;;;;;4.35;1.85;;;;;;;27.05;30.24;100039.69;5053639;28;20040;-76
2022/07/20 04:47:45;;;;;;;4.10;1.98;;;;;;;26.97;30.35;100050.25;5053885;28;20060;-76
2022/07/20 04:50:12;;;;;;;3.85;1.75;;;;;;;26.89;30.49;100051.72;5053393;28;20056;-76
2022/07/20 04:52:37;;;;;;;3.78;1.80;;;;;;;26.84;30.97;100055.06;5052884;28;20485;-75
2022/07/20 04:55:03;;;;;;;3.55;1.58;;;;;;;26.79;30.89;100061.22;5053100;28;20033;-75
2022/07/20 04:57:28;;;;;;;4.85;1.67;;;;;;;26.85;30.82;100062.22;5053273;28;20082;-76
2022/07/20 04:59:53;;;;;;;3.45;1.52;;;;;;;26.72;31.29;100067.03;5053182;28;20128;-75
2022/07/20 05:02:19;;;;;;;3.90;1.57;;;;;;;26.67;31.47;100080.31;5053485;28;20055;-76
2022/07/20 05:04:46;;;;;;;6.82;1.77;;;;;;;26.57;31.69;100086.22;5062398;28;20710;-76
2022/07/20 05:07:12;;;;;;;3.58;1.85;;;;;;;26.62;31.47;100088.47;5073200;28;20028;-76
2022/07/20 05:09:38;;;;;;;4.75;1.85;;;;;;;26.54;31.74;100092.69;5073213;28;20375;-76
2022/07/20 05:12:04;;;;;;;3.60;1.50;;;;;;;26.48;31.73;100086.88;5055030;28;20025;-76
2022/07/20 05:14:29;;;;;;;3.80;1.55;;;;;;;26.45;32.25;100090.56;5072790;28;20036;-77
2022/07/20 05:16:54;;;;;;;3.47;1.70;;;;;;;26.50;32.29;100098.38;5072749;28;20024;-76
2022/07/20 05:19:22;;;;;;;5.65;1.65;;;;;;;26.43;32.38;100103.41;5073208;28;20294;-75
2022/07/20 05:21:47;;;;;;;4.82;1.98;;;;;;;26.33;32.67;100113.59;5072854;28;20067;-78
2022/07/20 05:24:12;;;;;;;5.03;1.67;;;;;;;26.15;33.03;100125.28;5072520;28;20166;-74
2022/07/20 05:26:38;;;;;;;4.55;1.98;;;;;;;25.96;33.91;100138.13;5072582;28;20237;-77
2022/07/20 05:29:03;;;;;;;4.38;2.00;;;;;;;25.75;34.48;100133.13;5072461;28;20056;-76
2022/07/20 05:31:28;;;;;;;4.72;2.17;;;;;;;25.58;35.11;100128.75;5072303;28;20029;-78
2022/07/20 05:33:54;;;;;;;7.40;3.10;;;;;;;25.52;35.14;100148.00;5072880;28;20040;-76
2022/07/20 05:36:19;;;;;;;4.80;2.13;;;;;;;25.33;35.68;100151.66;5072459;28;20035;-78
2022/07/20 05:38:44;;;;;;;4.38;2.00;;;;;;;25.23;36.30;100173.00;5054455;28;20036;-77
2022/07/20 05:41:10;;;;;;;8.15;3.45;;;;;;;25.03;38.75;100177.84;5072535;28;20021;-76
2022/07/20 05:43:35;;;;;;;8.43;3.65;;;;;;;24.93;39.71;100176.03;5072561;28;20101;-76
2022/07/20 05:46:01;;;;;;;7.18;3.25;;;;;;;24.93;40.48;100170.47;5072080;28;20365;-76
2022/07/20 05:48:26;;;;;;;7.43;3.97;;;;;;;24.79;41.69;100180.69;5072309;28;20071;-76
2022/07/20 05:50:51;;;;;;;6.78;3.70;;;;;;;24.71;42.17;100179.28;5072180;28;20489;-76
2022/07/20 05:53:17;;;;;;;9.63;4.63;;;;;;;24.62;42.70;100183.84;5072568;28;20063;-76
2022/07/20 05:55:42;;;;;;;10.25;4.68;;;;;;;24.53;43.39;100188.00;5072216;28;20383;-76
2022/07/20 05:58:10;;;;;;;11.65;5.18;;;;;;;24.51;43.49;100181.25;5072588;28;20035;-77
2022/07/20 06:00:36;;;;;;;8.35;4.50;;;;;;;24.50;44.15;100190.81;5072108;28;20024;-76
2022/07/20 06:03:02;;;;;;;9.00;4.95;;;;;;;24.38;44.99;100197.03;5072435;28;20058;-76
2022/07/20 06:05:27;;;;;;;9.55;4.75;;;;;;;24.43;44.70;100190.97;5071818;28;20059;-78
2022/07/20 06:07:57;;;;;;;8.70;4.70;;;;;;;24.45;44.60;100196.88;5071829;28;20111;-73
2022/07/20 06:10:23;;;;;;;9.85;4.85;;;;;;;24.43;44.96;100202.09;5071942;28;20116;-74
2022/07/20 06:12:49;;;;;;;8.38;4.85;;;;;;;24.42;44.93;100206.09;5071244;28;20062;-76
2022/07/20 06:15:14;;;;;;;13.57;5.68;;;;;;;24.39;45.31;100206.97;5071754;28;20033;-74
2022/07/20 06:17:40;;;;;;;7.68;4.85;;;;;;;24.35;45.59;100195.09;5072046;28;20538;-77
2022/07/20 06:20:11;;;;;;;7.95;4.35;;;;;;;24.28;45.34;100199.56;5072104;28;20040;-77
2022/07/20 06:22:37;;;;;;;7.95;4.70;;;;;;;24.18;46.13;100203.31;5053852;28;20037;-77
2022/07/20 06:25:08;;;;;;;10.63;5.10;;;;;;;24.22;45.89;100203.25;5071899;28;20112;-77
2022/07/20 06:27:33;;;;;;;14.82;5.32;;;;;;;24.13;45.99;100212.16;5072273;28;20032;-76
2022/07/20 06:29:59;;;;;;;9.80;5.32;;;;;;;24.30;45.82;100211.06;5071782;28;20442;-76
2022/07/20 06:32:25;;;;;;;11.35;5.57;;;;;;;24.43;46.10;100225.16;5053838;28;20508;-76
2022/07/20 06:34:50;;;;;;;10.80;5.30;;;;;;;24.72;45.13;100225.38;5071430;28;20168;-76
2022/07/20 06:37:15;;;;;;;11.60;5.90;;;;;;;25.21;44.32;100222.00;5071620;28;20467;-78
2022/07/20 06:39:41;;;;;;;9.23;5.57;;;;;;;25.65;43.07;100228.94;5071756;28;20075;-78
2022/07/20 06:42:06;;;;;;;8.32;4.80;;;;;;;26.09;42.64;100235.84;5071720;28;20039;-78
2022/07/20 06:44:31;;;;;;;12.07;6.78;;;;;;;26.54;41.49;100233.09;5071693;28;20060;-78
2022/07/20 06:46:57;;;;;;;14.27;6.43;;;;;;;26.35;42.18;100237.56;5071977;28;20431;-78
2022/07/20 06:49:24;;;;;;;9.27;5.68;;;;;;;26.96;41.13;100238.69;5071821;28;20082;-79
2022/07/20 06:51:49;;;;;;;8.48;5.50;;;;;;;26.91;41.05;100236.44;5071997;28;20390;-78
2022/07/20 06:54:15;;;;;;;14.18;6.60;;;;;;;26.81;41.64;100245.91;5071779;28;20024;-78
2022/07/20 06:56:40;;;;;;;11.73;5.93;;;;;;;27.16;41.27;100249.69;5071604;28;20031;-79
2022/07/20 06:59:06;;;;;;;10.88;5.85;;;;;;;27.34;40.82;100249.16;5071595;28;20040;-78
2022/07/20 07:01:31;;;;;;;10.13;5.78;;;;;;;27.71;40.13;100259.59;5071574;28;20477;-78
2022/07/20 07:03:56;;;;;;;10.13;5.72;;;;;;;27.81;39.99;100266.84;5071171;28;20155;-78
2022/07/20 07:06:24;;;;;;;9.23;5.68;;;;;;;27.87;40.00;100272.66;5071555;28;20055;-78
2022/07/20 07:08:49;;;;;;;10.07;6.35;;;;;;;28.00;39.76;100276.22;5053507;28;20448;-78
2022/07/20 07:11:15;;;;;;;10.45;6.15;;;;;;;28.29;39.85;100278.91;5071242;28;20029;-78
2022/07/20 07:13:40;;;;;;;10.75;6.03;;;;;;;28.81;38.65;100280.25;5071287;28;20033;-77
2022/07/20 07:16:06;;;;;;;11.43;6.18;;;;;;;28.51;39.27;100289.34;5071456;28;20032;-78
2022/07/20 07:18:32;;;;;;;12.98;6.10;;;;;;;28.02;40.21;100292.56;5057304;28;20044;-78
2022/07/20 07:20:57;;;;;;;11.40;6.30;;;;;;;27.42;41.75;100303.66;5075058;28;20059;-81
2022/07/20 07:23:22;;;;;;;13.20;6.90;;;;;;;27.10;42.80;100308.16;5075094;28;20052;-77
2022/07/20 07:25:48;;;;;;;12.05;7.32;;;;;;;27.16;42.91;100317.56;5074364;28;20093;-75
2022/07/20 07:28:13;;;;;;;10.20;6.60;;;;;;;26.87;43.90;100309.16;5074593;28;20082;-76
2022/07/20 07:30:38;;;;;;;10.30;6.30;;;;;;;26.85;43.82;100319.22;5074463;28;20025;-77
2022/07/20 07:33:04;;;;;;;14.60;7.70;;;;;;;26.78;43.44;100319.41;5074841;28;20025;-76
2022/07/20 07:35:29;;;;;;;10.00;7.00;;;;;;;26.75;43.34;100325.88;5056551;28;20057;-77
2022/07/20 07:37:54;;;;;;;13.88;7.82;;;;;;;26.81;43.71;100333.28;5056680;28;20082;-77
2022/07/20 07:40:19;;;;;;;11.57;7.10;;;;;;;26.81;43.41;100335.28;5074424;28;20063;-77
2022/07/20 07:42:45;;;;;;;15.27;7.95;;;;;;;26.24;44.27;100337.53;5074250;28;20116;-75
2022/07/20 07:45:10;;;;;;;11.88;7.80;;;;;;;26.32;43.97;100346.50;5074131;28;20029;-74
2022/07/20 07:47:36;;;;;;;13.80;8.43;;;;;;;26.39;43.97;100340.78;5074385;28;20078;-76
2022/07/20 07:50:03;;;;;;;11.50;7.68;;;;;;;26.48;43.97;100349.31;5056344;28;20459;-74
2022/07/20 07:52:28;;;;;;;14.57;8.38;;;;;;;26.71;43.37;100355.91;5074510;28;20042;-75
2022/07/20 07:54:53;;;;;;;14.00;8.30;;;;;;;26.83;43.26;100361.56;5074085;28;20024;-74
2022/07/20 07:57:19;;;;;;;12.30;7.97;;;;;;;26.98;43.21;100364.75;5056272;28;20024;-75
2022/07/20 07:59:44;;;;;;;16.08;8.20;;;;;;;27.06;43.00;100357.78;5074222;28;20077;-75
2022/07/20 08:02:10;;;;;;;11.77;7.75;;;;;;;27.27;42.64;100367.56;5073943;28;20062;-75
2022/07/20 08:04:35;;;;;;;12.43;7.57;;;;;;;27.09;42.46;100384.84;5073698;28;20044;-74
2022/07/20 08:07:01;;;;;;;15.05;8.93;;;;;;;27.20;42.26;100385.31;5074119;28;20032;-72
2022/07/20 08:09:26;;;;;;;15.30;8.45;;;;;;;26.89;42.67;100376.56;5074062;28;20356;-73
2022/07/20 08:11:52;;;;;;;18.55;8.63;;;;;;;27.10;42.55;100375.22;5073763;28;20078;-72
2022/07/20 08:14:17;;;;;;;18.40;8.80;;;;;;;26.85;43.48;100397.44;5056028;28;20414;-73
2022/07/20 08:16:43;;;;;;;16.90;7.97;;;;;;;26.86;43.48;100385.03;5056072;28;20031;-72
2022/07/20 08:19:09;;;;;;;18.13;10.82;;;;;;;26.89;43.34;100393.34;5073858;28;20036;-76
2022/07/20 08:21:34;;;;;;;17.13;8.40;;;;;;;27.02;43.16;100412.97;5073848;28;20114;-72
2022/07/20 08:27:22;;;;;;;18.00;9.23;;;;;;;26.75;43.07;100412.47;5074106;28;20082;-72
2022/07/20 08:29:47;;;;;;;13.77;8.48;;;;;;;26.94;43.71;100420.72;5073593;28;20072;-75
2022/07/20 08:32:13;;;;;;;14.23;8.80;;;;;;;27.08;43.08;100428.00;5055928;28;20109;-75
2022/07/20 08:34:38;;;;;;;19.55;9.65;;;;;;;26.98;42.56;100429.81;5073712;28;20052;-74
2022/07/20 08:37:04;;;;;;;14.23;8.95;;;;;;;27.01;42.62;100422.56;5073729;28;20071;-75
2022/07/20 08:39:29;;;;;;;15.63;9.13;;;;;;;26.94;43.11;100431.91;5073390;28;20116;-74
2022/07/20 08:41:54;;;;;;;15.45;8.55;;;;;;;27.11;43.04;100427.09;5073507;28;20043;-76
2022/07/20 08:44:20;;;;;;;14.48;8.93;;;;;;;27.03;43.27;100428.50;5073302;28;20496;-75
2022/07/20 08:46:45;;;;;;;16.38;8.80;;;;;;;27.05;43.32;100417.69;5073569;28;20032;-74
2022/07/20 08:49:14;;;;;;;13.88;8.18;;;;;;;27.05;43.46;100411.31;5073281;28;20040;-74
2022/07/20 08:51:40;;;;;;;14.65;8.82;;;;;;;27.10;43.86;100424.75;5073477;28;20036;-74
2022/07/20 08:54:06;;;;;;;14.55;9.00;;;;;;;27.26;43.63;100411.50;5055348;28;20085;-75
2022/07/20 08:56:31;;;;;;;14.90;8.70;;;;;;;27.47;43.13;100400.94;5073262;28;20086;-75
2022/07/20 08:58:57;;;;;;;18.27;8.82;;;;;;;27.48;43.38;100394.13;5073258;28;20048;-74
2022/07/20 09:01:23;;;;;;;15.52;8.80;;;;;;;27.20;43.64;100388.09;5073624;28;20028;-73
2022/07/20 09:04:11;;;;;;;12.65;8.27;;;;;;;27.26;43.60;100386.34;5054806;28;20031;-75
2022/07/20 09:06:49;;;;;;;16.27;9.25;;;;;;;27.20;43.09;100379.72;5073055;28;20468;-73
2022/07/20 09:09:17;;;;;;;14.13;7.95;;;;;;;27.43;42.66;100384.28;5072935;28;20479;-73
2022/07/20 09:11:42;;;;;;;15.25;8.55;;;;;;;27.57;42.81;100380.28;5072843;28;20081;-74
2022/07/20 09:14:07;;;;;;;14.98;8.38;;;;;;;27.82;42.18;100369.16;5054779;28;20040;-75
2022/07/20 09:18:04;;;;;;;12.77;7.50;;;;;;;27.91;42.28;100353.72;5025654;28;20814;-73
2022/07/20 09:20:31;;;;;;;13.10;8.82;;;;;;;27.86;42.06;100357.84;5025940;28;20116;-73
2022/07/20 09:23:05;;;;;;;16.77;8.38;;;;;;;27.93;41.61;100356.84;5025877;28;20053;-78
2022/07/20 09:25:30;;;;;;;14.38;8.35;;;;;;;27.93;40.77;100359.66;5025835;28;20026;-76
2022/07/20 09:27:56;;;;;;;13.13;7.68;;;;;;;28.09;40.62;100359.53;5026148;28;20140;-75
2022/07/20 09:30:22;;;;;;;13.10;7.45;;;;;;;28.19;40.05;100347.19;5008219;28;20029;-77
2022/07/20 09:33:03;;;;;;;12.50;6.45;;;;;;;28.18;39.89;100342.81;5025923;28;20042;-76
2022/07/20 09:35:32;;;;;;;14.07;7.20;;;;;;;28.14;39.53;100351.34;5025739;28;20034;-76
2022/07/20 09:38:03;;;;;;;11.40;7.18;;;;;;;28.18;39.87;100352.00;5025816;28;20098;-76
2022/07/20 09:40:39;;;;;;;10.77;6.45;;;;;;;28.31;39.05;100337.25;5026044;28;20042;-77
2022/07/20 09:43:04;;;;;;;;;;;;;;;28.24;39.08;100332.63;5026437;28;20030;-77
2022/07/20 09:45:29;;;;;;;12.27;6.13;;;;;;;28.31;38.76;100338.03;5025928;28;19923;-75
2022/07/20 09:48:05;;;;;;;10.90;5.68;;;;;;;28.30;38.77;100344.84;5025866;28;20030;-75
2022/07/20 09:50:36;;;;;;;11.40;5.80;;;;;;;28.23;39.23;100342.28;5025413;28;20109;-75
2022/07/20 09:53:01;;;;;;;9.32;5.38;;;;;;;28.38;38.59;100348.19;5025474;28;20416;-77
2022/07/20 09:55:27;;;;;;;12.48;6.40;;;;;;;28.27;38.13;100342.97;5025708;28;20044;-75
2022/07/20 09:57:53;;;;;;;7.97;5.20;;;;;;;28.35;38.19;100338.69;5025404;28;20087;-76
2022/07/20 10:00:20;;;;;;;8.82;5.68;;;;;;;28.30;38.39;100342.06;5025617;28;20045;-76
2022/07/20 10:02:50;;;;;;;9.70;5.50;;;;;;;28.58;38.28;100359.16;5025774;28;20030;-76
2022/07/20 10:05:19;;;;;;;9.25;5.50;;;;;;;28.63;38.18;100372.56;5025633;28;20444;-76
2022/07/20 10:07:44;;;;;;;10.85;6.25;;;;;;;28.48;38.56;100374.28;5025437;28;20038;-76
2022/07/20 10:10:10;;;;;;;11.68;6.22;;;;;;;28.58;38.42;100392.75;5025508;28;20079;-77
2022/07/20 10:12:37;;;;;;;9.43;5.80;;;;;;;28.51;38.03;100406.97;5025444;28;20380;-76
2022/07/20 10:15:07;;;;;;;10.80;5.78;;;;;;;28.40;38.26;100413.75;5025126;28;20037;-76
2022/07/20 10:17:33;;;;;;;8.75;5.30;;;;;;;28.51;38.18;100415.38;5025691;28;20054;-77
2022/07/20 10:19:59;;;;;;;9.45;5.55;;;;;;;28.70;38.41;100417.13;5024864;28;20178;-77
2022/07/20 10:22:25;;;;;;;10.85;5.75;;;;;;;29.05;38.40;100415.16;5024859;28;20117;-77
2022/07/20 10:25:14;;;;;;;10.82;6.30;;;;;;;28.90;39.15;100428.91;5025218;28;20032;-77
2022/07/20 10:27:39;;;;;;;10.68;6.13;;;;;;;29.21;38.99;100433.81;5020835;28;20059;-74
2022/07/20 10:30:16;;;;;;;11.70;6.38;;;;;;;29.18;39.65;100431.94;5012025;28;20022;-74
2022/07/20 10:32:53;;;;;;;11.43;6.50;;;;;;;29.34;38.65;100440.94;5012167;28;20086;-76
2022/07/20 10:35:29;;;;;;;10.90;6.07;;;;;;;28.89;38.78;100437.75;5012052;28;20469;-77
2022/07/20 10:37:56;;;;;;;8.82;5.43;;;;;;;29.02;38.93;100433.66;5012208;28;20030;-75
2022/07/20 10:40:26;;;;;;;8.48;4.90;;;;;;;28.95;38.92;100425.50;5011798;28;20029;-76
2022/07/20 10:43:10;;;;;;;10.52;5.65;;;;;;;28.94;39.03;100429.56;5011884;28;20384;-76
2022/07/20 10:45:36;;;;;;;10.25;5.88;;;;;;;28.71;39.45;100441.91;5010898;28;20038;-75
2022/07/20 10:48:16;;;;;;;10.25;6.55;;;;;;;28.26;40.61;100442.19;5011884;28;20471;-75
2022/07/20 10:50:52;;;;;;;10.20;5.65;;;;;;;28.23;40.52;100442.28;5012031;28;20429;-74
2022/07/20 10:53:17;;;;;;;10.45;5.50;;;;;;;28.31;40.04;100436.03;5012008;28;20037;-75
2022/07/20 10:55:51;;;;;;;12.50;5.50;;;;;;;28.49;40.28;100441.03;5011540;28;20030;-76
2022/07/20 10:58:25;;;;;;;9.25;5.10;;;;;;;28.86;38.98;100435.81;5011906;28;20026;-76
2022/07/20 11:00:51;;;;;;;9.02;5.63;;;;;;;28.64;39.45;100430.16;5011834;28;20045;-77
2022/07/20 11:03:31;;;;;;;11.52;6.75;;;;;;;28.71;39.76;100429.91;5010673;28;20034;-75
2022/07/20 11:06:18;;;;;;;10.88;5.60;;;;;;;28.90;39.34;100426.09;5011426;28;20026;-76
2022/07/20 11:08:53;;;;;;;9.88;6.40;;;;;;;28.78;39.84;100426.88;5011739;28;20029;-75
2022/07/20 11:11:21;;;;;;;8.77;5.40;;;;;;;29.00;39.81;100435.38;5011403;28;20048;-77
2022/07/20 11:13:48;;;;;;;11.48;6.05;;;;;;;28.61;40.00;100433.88;5011626;28;20470;-77
2022/07/20 11:16:17;;;;;;;12.45;5.78;;;;;;;28.88;40.12;100427.75;5011245;28;20049;-77
2022/07/20 11:18:43;;;;;;;11.60;6.10;;;;;;;28.74;40.55;100432.63;5011549;28;20038;-76
2022/07/20 11:21:11;;;;;;;10.45;6.38;;;;;;;28.61;40.74;100429.03;5011600;28;20126;-76
2022/07/20 11:23:49;;;;;;;11.25;6.07;;;;;;;28.88;40.08;100424.97;5011896;28;20041;-76
2022/07/20 11:26:19;;;;;;;9.52;5.68;;;;;;;29.02;40.07;100419.66;5011350;28;20029;-75
2022/07/20 11:28:51;;;;;;;12.15;6.65;;;;;;;28.70;40.48;100409.50;5011563;28;20094;-74
2022/07/20 11:31:20;;;;;;;9.55;5.53;;;;;;;28.70;40.29;100422.75;5011133;28;20026;-74